KSSF - San Antonio/Stinson, TX, US

Issued at 2332 UTC 05 Dec 2019
Updated at 0336 UTC 06 Dec 2019
Potential Impact None Slight Moderate High
Time0253Z 06/04Z 06/05Z 06/06Z 06/07Z 06/08Z 06/09Z 06/10Z 06/11Z 06/12Z 06/13Z 06/14Z 06/15Z 06/16Z>>
Type OBS PRVL PRVL PRVL PRVL PRVL PRVL PRVL PRVL PRVL PRVL PRVL PRVL PRVL
VIS 6 >6 >6 >6 >6 2 2 2 >6 >6 >6 >6 >6 >6
CIG -- 250 250 250 250 4 4 4 -- -- -- -- -- --
Cover CLR BKN BKN BKN BKN BKN BKN BKN FEW FEW FEW FEW FEW FEW
FltCat VFR VFR VFR VFR VFR LIFR LIFR LIFR VFR VFR VFR VFR VFR VFR
WX BR -- -- -- -- BR BR BR -- -- -- -- -- --
WDir 350 VRB VRB VRB VRB 210 210 210 350 350 350 350 350 350
WSpd 3 3 3 3 3 4 4 4 12 12 12 12 12 12
WGst -- -- -- -- -- -- -- -- -- -- -- -- -- --
Raw TAF
KSSF 052332Z 0600/0624 VRB03KT P6SM BKN250
  FM060800 21004KT 2SM BR BKN004
  FM061100 35012KT P6SM FEW250
  FM062200 35010KT P6SM FEW250


Raw METAR
KSSF 060253Z 35003KT 6SM BR CLR 14/14 A2997 RMK AO2 SLP148 T01440144 51014
KSSF 060153Z 00000KT 9SM CLR 15/14 A2996 RMK AO2 SLP144 T01500144
KSSF 060053Z 00000KT 10SM CLR 17/16 A2995 RMK AO2 SLP141 T01670156

METAR Board
Radar Display
Forecast Discussion
For situational awareness. Not to be used for flight planning purposes.